Time;durP1;ratioP1;P1;durP2;ratioP2;P2;SDS_P1;SDS_P2;PMS_P1;PMS_P2;Temp;Humidity;BMP_temperature;BMP_pressure;BME280_temperature;BME280_humidity;BME280_pressure;Samples;Min_cycle;Max_cycle;Signal;HPM_P1;HPM_P2
2023/10/03 00:02:10;;;;;;;21.77;12.30;;;;;;;;;;5073544;28;20193;-75
2023/10/03 00:04:55;;;;;;;29.90;10.95;;;;;;;;;;5073004;28;20476;-75
2023/10/03 00:07:29;;;;;;;23.08;11.68;;;;;;;;;;5073689;28;20194;-75
2023/10/03 00:09:59;;;;;;;23.27;11.17;;;;;;;;;;5073495;28;20244;-75
2023/10/03 00:12:32;;;;;;;27.20;13.18;;;;;;;;;;5073186;28;20946;-75
2023/10/03 00:15:01;;;;;;;25.10;11.93;;;;;;;;;;5073351;28;20218;-75
2023/10/03 00:17:32;;;;;;;27.87;12.00;;;;;;;;;;5073004;28;20443;-76
2023/10/03 00:20:00;;;;;;;21.80;10.93;;;;;;;;;;5073125;28;20413;-75
2023/10/03 00:22:29;;;;;;;29.03;12.50;;;;;;;;;;5073107;28;20552;-75
2023/10/03 00:25:01;;;;;;;24.60;12.60;;;;;;;;;;5072818;28;20887;-75
2023/10/03 00:27:35;;;;;;;28.48;13.35;;;;;;;;;;5073527;28;20425;-75
2023/10/03 00:30:05;;;;;;;27.45;11.38;;;;;;;;;;5073617;28;20193;-75
2023/10/03 00:32:43;;;;;;;23.87;11.20;;;;;;;;;;5072951;28;20182;-75
2023/10/03 00:35:15;;;;;;;29.17;12.32;;;;;;;;;;5073017;28;20440;-75
2023/10/03 00:37:50;;;;;;;23.10;10.63;;;;;;;;;;5073294;28;20520;-75
2023/10/03 00:40:28;;;;;;;30.33;13.50;;;;;;;;;;5072963;28;20882;-76
2023/10/03 00:43:04;;;;;;;28.75;11.68;;;;;;;;;;5073223;28;20424;-75
2023/10/03 00:45:33;;;;;;;23.57;11.80;;;;;;;;;;5061552;28;20289;-75
2023/10/03 00:48:08;;;;;;;25.05;11.00;;;;;;;;;;5067536;28;20436;-75
2023/10/03 00:50:39;;;;;;;28.07;11.70;;;;;;;;;;5072882;28;20213;-75
2023/10/03 00:53:14;;;;;;;23.20;11.70;;;;;;;;;;5073231;28;20424;-75
2023/10/03 00:55:44;;;;;;;22.53;10.53;;;;;;;;;;5072263;28;20228;-75
2023/10/03 00:58:28;;;;;;;19.85;10.57;;;;;;;;;;5072996;28;20515;-75
2023/10/03 01:00:57;;;;;;;21.80;11.07;;;;;;;;;;5072856;28;20186;-75
2023/10/03 01:03:28;;;;;;;22.10;9.97;;;;;;;;;;5073020;28;20766;-75
2023/10/03 01:06:08;;;;;;;23.73;10.40;;;;;;;;;;5072803;28;20506;-75
2023/10/03 01:08:39;;;;;;;20.45;10.65;;;;;;;;;;5072656;28;20425;-75
2023/10/03 01:11:25;;;;;;;20.42;9.93;;;;;;;;;;5072651;28;20220;-75
2023/10/03 01:13:57;;;;;;;19.25;9.32;;;;;;;;;;5075456;28;20291;-75
2023/10/03 01:16:30;;;;;;;23.02;11.48;;;;;;;;;;5076477;28;20178;-75
2023/10/03 01:19:11;;;;;;;20.77;10.20;;;;;;;;;;5076376;28;20238;-75
2023/10/03 01:21:40;;;;;;;24.23;11.02;;;;;;;;;;5076057;28;20647;-75
2023/10/03 01:24:20;;;;;;;21.83;9.07;;;;;;;;;;5076200;28;20250;-75
2023/10/03 01:26:52;;;;;;;25.15;12.43;;;;;;;;;;5076216;28;20197;-75
2023/10/03 01:29:20;;;;;;;16.08;8.07;;;;;;;;;;5076242;28;20269;-75
2023/10/03 01:31:48;;;;;;;20.83;10.20;;;;;;;;;;5076111;28;20194;-75
2023/10/03 01:34:18;;;;;;;18.50;9.43;;;;;;;;;;5076092;28;20190;-75
2023/10/03 01:36:51;;;;;;;22.90;10.80;;;;;;;;;;5076013;28;20621;-74
2023/10/03 01:39:25;;;;;;;21.80;9.75;;;;;;;;;;5075817;28;20633;-75
2023/10/03 01:41:56;;;;;;;20.40;10.70;;;;;;;;;;5075978;28;20727;-75
2023/10/03 01:44:28;;;;;;;23.08;10.13;;;;;;;;;;5075812;28;20551;-75
2023/10/03 01:46:58;;;;;;;17.92;9.45;;;;;;;;;;5075851;28;20182;-75
2023/10/03 01:49:25;;;;;;;16.98;8.45;;;;;;;;;;5076036;28;20197;-75
2023/10/03 01:51:55;;;;;;;21.67;10.23;;;;;;;;;;5076133;28;20244;-75
2023/10/03 01:54:30;;;;;;;23.40;9.73;;;;;;;;;;5075856;28;20216;-75
2023/10/03 01:57:02;;;;;;;19.75;10.23;;;;;;;;;;5075964;28;20264;-75
2023/10/03 01:59:31;;;;;;;21.05;10.43;;;;;;;;;;5075187;28;20178;-75
2023/10/03 02:02:06;;;;;;;19.83;9.05;;;;;;;;;;5075536;28;20201;-75
2023/10/03 02:04:36;;;;;;;19.35;9.73;;;;;;;;;;5076006;28;20211;-75
2023/10/03 02:07:07;;;;;;;15.52;8.07;;;;;;;;;;5075385;28;20276;-75
2023/10/03 02:09:38;;;;;;;17.15;7.82;;;;;;;;;;5075149;28;20179;-75
2023/10/03 02:12:10;;;;;;;24.88;12.05;;;;;;;;;;5075404;28;20240;-74
2023/10/03 02:14:39;;;;;;;20.48;10.20;;;;;;;;;;5075230;28;20287;-75
2023/10/03 02:17:08;;;;;;;21.00;10.20;;;;;;;;;;5075503;28;20193;-75
2023/10/03 02:19:41;;;;;;;19.95;9.85;;;;;;;;;;5074993;28;20190;-75
2023/10/03 02:22:13;;;;;;;18.95;10.35;;;;;;;;;;5075490;28;20178;-75
2023/10/03 02:24:44;;;;;;;17.38;9.13;;;;;;;;;;5074805;28;20202;-75
2023/10/03 02:27:14;;;;;;;21.63;9.43;;;;;;;;;;5075093;28;20182;-74
2023/10/03 02:29:51;;;;;;;18.70;9.85;;;;;;;;;;5075535;28;20598;-75
2023/10/03 02:32:21;;;;;;;21.70;9.18;;;;;;;;;;5055210;28;20221;-75
2023/10/03 02:34:49;;;;;;;19.05;10.18;;;;;;;;;;5054771;28;20641;-75
2023/10/03 02:37:24;;;;;;;21.30;9.85;;;;;;;;;;5055826;28;20191;-75
2023/10/03 02:39:54;;;;;;;19.77;8.35;;;;;;;;;;5074127;28;20184;-75
2023/10/03 02:42:23;;;;;;;18.15;8.27;;;;;;;;;;5074509;28;20192;-74
2023/10/03 02:44:52;;;;;;;15.98;8.40;;;;;;;;;;5073578;28;20209;-75
2023/10/03 02:47:21;;;;;;;16.98;8.70;;;;;;;;;;5074267;28;20198;-75
2023/10/03 02:49:52;;;;;;;24.65;10.48;;;;;;;;;;5074635;28;20190;-75
2023/10/03 02:52:28;;;;;;;17.10;9.00;;;;;;;;;;5074592;28;20183;-75
2023/10/03 02:54:58;;;;;;;20.30;10.02;;;;;;;;;;5074116;28;20178;-74
2023/10/03 02:57:28;;;;;;;19.55;10.73;;;;;;;;;;5074827;28;20221;-75
2023/10/03 03:00:06;;;;;;;19.77;8.70;;;;;;;;;;5074686;28;20183;-75
2023/10/03 03:02:33;;;;;;;19.35;9.85;;;;;;;;;;5054442;28;20283;-75
2023/10/03 03:05:04;;;;;;;14.63;8.38;;;;;;;;;;5062654;28;20214;-74
2023/10/03 03:07:32;;;;;;;17.02;9.05;;;;;;;;;;5074292;28;20274;-75
2023/10/03 03:10:02;;;;;;;20.52;9.15;;;;;;;;;;5074165;28;20194;-75
2023/10/03 03:12:36;;;;;;;18.70;8.80;;;;;;;;;;5073859;28;20282;-75
2023/10/03 03:15:07;;;;;;;18.38;9.07;;;;;;;;;;5073570;28;20221;-75
2023/10/03 03:17:36;;;;;;;14.90;7.63;;;;;;;;;;5074459;28;20179;-75
2023/10/03 03:20:11;;;;;;;19.90;9.73;;;;;;;;;;5074548;28;20194;-75
2023/10/03 03:22:39;;;;;;;20.48;8.90;;;;;;;;;;5074386;28;20247;-75
2023/10/03 03:25:13;;;;;;;21.17;7.85;;;;;;;;;;5073220;28;20218;-75
2023/10/03 03:27:43;;;;;;;15.65;8.20;;;;;;;;;;5074183;28;20213;-75
2023/10/03 03:30:33;;;;;;;18.50;9.00;;;;;;;;;;5074070;28;20273;-77
2023/10/03 03:33:19;;;;;;;17.38;8.23;;;;;;;;;;5074230;28;20583;-75
2023/10/03 03:35:52;;;;;;;16.65;9.15;;;;;;;;;;5072867;28;20224;-75
2023/10/03 03:38:20;;;;;;;15.30;7.97;;;;;;;;;;5073590;28;20178;-74
2023/10/03 03:40:55;;;;;;;16.90;8.82;;;;;;;;;;5073644;28;20275;-75
2023/10/03 03:43:25;;;;;;;17.48;8.20;;;;;;;;;;5073697;28;20210;-75
2023/10/03 03:45:55;;;;;;;15.82;7.45;;;;;;;;;;5073104;28;20209;-75
2023/10/03 03:48:23;;;;;;;14.60;7.32;;;;;;;;;;5073519;28;20286;-74
2023/10/03 03:50:53;;;;;;;18.00;8.15;;;;;;;;;;5073472;28;20691;-75
2023/10/03 03:53:26;;;;;;;19.83;9.52;;;;;;;;;;5073760;28;20182;-75
2023/10/03 03:55:55;;;;;;;15.93;8.43;;;;;;;;;;5072716;28;20533;-75
2023/10/03 03:58:23;;;;;;;15.35;7.70;;;;;;;;;;5072953;28;20199;-75
2023/10/03 04:00:56;;;;;;;15.50;9.20;;;;;;;;;;5073298;28;20644;-75
2023/10/03 04:03:27;;;;;;;15.00;8.10;;;;;;;;;;5073365;28;20185;-75
2023/10/03 04:05:57;;;;;;;17.70;8.05;;;;;;;;;;5072808;28;20205;-75
2023/10/03 04:08:26;;;;;;;15.18;7.50;;;;;;;;;;5073809;28;20197;-75
2023/10/03 04:11:01;;;;;;;14.23;6.93;;;;;;;;;;5073510;28;20291;-75
2023/10/03 04:13:33;;;;;;;18.27;7.53;;;;;;;;;;5073016;28;20229;-75
2023/10/03 04:16:06;;;;;;;20.55;8.63;;;;;;;;;;5072624;28;20315;-75
2023/10/03 04:18:37;;;;;;;16.20;7.80;;;;;;;;;;5073721;28;20538;-75
2023/10/03 04:21:08;;;;;;;18.60;8.35;;;;;;;;;;5073468;28;20182;-75
2023/10/03 04:23:39;;;;;;;17.35;8.13;;;;;;;;;;5073866;28;20611;-75
2023/10/03 04:26:09;;;;;;;22.98;8.90;;;;;;;;;;5072618;28;20206;-75
2023/10/03 04:28:37;;;;;;;21.95;8.07;;;;;;;;;;5073080;28;20202;-75
2023/10/03 04:31:07;;;;;;;17.17;8.90;;;;;;;;;;5072761;28;20186;-75
2023/10/03 04:33:44;;;;;;;15.50;8.27;;;;;;;;;;5073399;28;20601;-74
2023/10/03 04:36:25;;;;;;;15.90;6.65;;;;;;;;;;5072449;28;20178;-74
2023/10/03 04:38:55;;;;;;;16.55;7.60;;;;;;;;;;5072880;28;20265;-75
2023/10/03 04:41:29;;;;;;;22.80;10.32;;;;;;;;;;5073023;28;20625;-74
2023/10/03 04:43:57;;;;;;;20.80;9.68;;;;;;;;;;5072983;28;20182;-74
2023/10/03 04:46:30;;;;;;;15.80;8.35;;;;;;;;;;5073023;28;20271;-75
2023/10/03 04:49:01;;;;;;;20.30;10.48;;;;;;;;;;5077317;28;20186;-75
2023/10/03 04:51:30;;;;;;;21.52;8.65;;;;;;;;;;5077418;28;20182;-74
2023/10/03 04:53:58;;;;;;;16.00;8.10;;;;;;;;;;5077005;28;20259;-74
2023/10/03 04:56:31;;;;;;;20.88;7.93;;;;;;;;;;5075951;28;20269;-75
2023/10/03 04:59:00;;;;;;;19.20;8.20;;;;;;;;;;5076707;28;20183;-74
2023/10/03 05:01:29;;;;;;;20.08;8.23;;;;;;;;;;5076978;28;20192;-75
2023/10/03 05:03:57;;;;;;;21.83;9.77;;;;;;;;;;5076918;28;20248;-74
2023/10/03 05:06:42;;;;;;;23.00;11.27;;;;;;;;;;5076359;28;20619;-75
2023/10/03 05:09:19;;;;;;;20.77;10.60;;;;;;;;;;5076127;28;20178;-75
2023/10/03 05:11:48;;;;;;;19.05;10.38;;;;;;;;;;5076807;28;20214;-74
2023/10/03 05:14:23;;;;;;;22.58;8.90;;;;;;;;;;5076443;28;20280;-74
2023/10/03 05:16:52;;;;;;;18.90;10.20;;;;;;;;;;5076416;28;20260;-75
2023/10/03 05:19:20;;;;;;;16.85;7.93;;;;;;;;;;5075302;28;20186;-74
2023/10/03 05:21:58;;;;;;;20.77;8.90;;;;;;;;;;5076293;28;20549;-74
2023/10/03 05:24:26;;;;;;;23.35;8.30;;;;;;;;;;5075932;28;20198;-75
2023/10/03 05:26:55;;;;;;;16.13;8.23;;;;;;;;;;5076252;28;20594;-75
2023/10/03 05:29:27;;;;;;;24.13;10.18;;;;;;;;;;5075100;28;20265;-75
2023/10/03 05:31:56;;;;;;;22.13;9.30;;;;;;;;;;5075806;28;20214;-74
2023/10/03 05:34:24;;;;;;;18.00;9.02;;;;;;;;;;5075787;28;20243;-74
2023/10/03 05:36:54;;;;;;;16.75;7.03;;;;;;;;;;5076621;28;20475;-74
2023/10/03 05:39:26;;;;;;;21.38;9.65;;;;;;;;;;5074769;28;20269;-74
2023/10/03 05:42:02;;;;;;;15.68;8.32;;;;;;;;;;5076371;28;20261;-75
2023/10/03 05:44:31;;;;;;;20.27;8.65;;;;;;;;;;5075648;28;20186;-74
2023/10/03 05:47:01;;;;;;;24.25;10.15;;;;;;;;;;5075754;28;20263;-75
2023/10/03 05:49:29;;;;;;;17.98;9.02;;;;;;;;;;5075782;28;20261;-74
2023/10/03 05:51:57;;;;;;;16.83;8.07;;;;;;;;;;5072753;28;20194;-74
2023/10/03 05:54:25;;;;;;;16.70;8.13;;;;;;;;;;5073857;28;20826;-75
2023/10/03 05:56:55;;;;;;;17.67;8.20;;;;;;;;;;5073769;28;20297;-75
2023/10/03 05:59:23;;;;;;;18.70;9.00;;;;;;;;;;5071748;28;20915;-74
2023/10/03 06:01:52;;;;;;;16.95;7.20;;;;;;;;;;5074157;28;20190;-74
2023/10/03 06:04:20;;;;;;;14.27;7.22;;;;;;;;;;5072685;28;20265;-75
2023/10/03 06:06:49;;;;;;;20.38;8.40;;;;;;;;;;5073740;28;20236;-74
2023/10/03 06:09:17;;;;;;;19.10;8.13;;;;;;;;;;5069741;28;20530;-74
2023/10/03 06:11:44;;;;;;;21.92;8.68;;;;;;;;;;5073563;28;20520;-74
2023/10/03 06:14:14;;;;;;;19.60;9.40;;;;;;;;;;5072727;28;20291;-75
2023/10/03 06:16:45;;;;;;;19.15;10.27;;;;;;;;;;5073013;28;20436;-73
2023/10/03 06:19:14;;;;;;;21.50;8.80;;;;;;;;;;5073751;28;20542;-74
2023/10/03 06:21:42;;;;;;;20.73;7.90;;;;;;;;;;5072944;28;20505;-75
2023/10/03 06:24:10;;;;;;;20.67;9.20;;;;;;;;;;5072176;28;20440;-74
2023/10/03 06:26:37;;;;;;;17.00;10.30;;;;;;;;;;5054963;28;20477;-74
2023/10/03 06:29:05;;;;;;;14.17;8.57;;;;;;;;;;5055155;28;20504;-75
2023/10/03 06:31:32;;;;;;;14.97;8.70;;;;;;;;;;5062999;28;20436;-75
2023/10/03 06:34:00;;;;;;;15.53;8.03;;;;;;;;;;5074626;28;20443;-74
2023/10/03 06:36:29;;;;;;;15.03;8.47;;;;;;;;;;5074833;28;20442;-75
2023/10/03 06:38:57;;;;;;;16.83;8.70;;;;;;;;;;5074583;28;20453;-75
2023/10/03 06:41:26;;;;;;;17.57;9.00;;;;;;;;;;5074868;28;20966;-75
2023/10/03 06:43:57;;;;;;;18.90;9.00;;;;;;;;;;5074822;28;20433;-74
2023/10/03 06:46:24;;;;;;;18.40;8.60;;;;;;;;;;5074906;28;20471;-75
2023/10/03 06:48:52;;;;;;;18.20;8.33;;;;;;;;;;5074717;28;20437;-74
2023/10/03 06:51:25;;;;;;;16.47;8.33;;;;;;;;;;5074868;28;20459;-75
2023/10/03 06:53:53;;;;;;;16.60;8.63;;;;;;;;;;5074622;28;20538;-75
2023/10/03 06:56:21;;;;;;;16.60;8.50;;;;;;;;;;5074637;28;20441;-75
2023/10/03 06:58:48;;;;;;;19.23;7.83;;;;;;;;;;5074214;28;20486;-75
2023/10/03 07:01:16;;;;;;;15.80;8.60;;;;;;;;;;5074601;28;20827;-75
2023/10/03 07:03:43;;;;;;;19.17;8.33;;;;;;;;;;5074734;28;20443;-75
2023/10/03 07:06:11;;;;;;;18.63;9.67;;;;;;;;;;5073790;28;20476;-75
2023/10/03 07:08:41;;;;;;;16.50;7.17;;;;;;;;;;5073997;28;20439;-75
2023/10/03 07:11:16;;;;;;;17.77;8.43;;;;;;;;;;5073918;28;21014;-75
2023/10/03 07:13:43;;;;;;;16.47;8.93;;;;;;;;;;5074102;28;20459;-75
2023/10/03 07:16:11;;;;;;;18.80;8.93;;;;;;;;;;5074180;28;20486;-75
2023/10/03 07:18:38;;;;;;;18.17;9.20;;;;;;;;;;5073731;28;20432;-75
2023/10/03 07:21:11;;;;;;;16.53;8.20;;;;;;;;;;5073766;28;20479;-75
2023/10/03 07:23:39;;;;;;;17.60;10.30;;;;;;;;;;5074129;28;20413;-75
2023/10/03 07:26:06;;;;;;;18.60;8.80;;;;;;;;;;5073594;28;20515;-75
2023/10/03 07:28:38;;;;;;;17.00;9.40;;;;;;;;;;5073605;28;20432;-75
2023/10/03 07:31:12;;;;;;;14.27;8.10;;;;;;;;;;5073865;28;20919;-76
2023/10/03 07:33:40;;;;;;;12.70;8.33;;;;;;;;;;5073927;28;20518;-76
2023/10/03 07:36:17;;;;;;;17.10;9.13;;;;;;;;;;5073768;28;20442;-75
2023/10/03 07:38:45;;;;;;;21.53;10.37;;;;;;;;;;5073971;28;20428;-76
2023/10/03 07:41:13;;;;;;;12.63;8.20;;;;;;;;;;5073699;28;20797;-75
2023/10/03 07:43:43;;;;;;;14.10;9.40;;;;;;;;;;5073431;28;20442;-75
2023/10/03 07:46:10;;;;;;;13.67;9.30;;;;;;;;;;5073461;28;20874;-75
2023/10/03 07:48:37;;;;;;;14.30;10.00;;;;;;;;;;5073597;28;20845;-75
2023/10/03 07:51:05;;;;;;;14.23;8.67;;;;;;;;;;5073530;28;20436;-75
2023/10/03 07:53:36;;;;;;;16.00;9.10;;;;;;;;;;5073492;28;20436;-76
2023/10/03 07:56:03;;;;;;;14.00;10.20;;;;;;;;;;5073167;28;20440;-75
2023/10/03 07:58:32;;;;;;;13.97;10.00;;;;;;;;;;5073079;28;20440;-75
2023/10/03 08:01:01;;;;;;;13.73;9.23;;;;;;;;;;5073402;28;20498;-75
2023/10/03 08:03:29;;;;;;;13.07;9.00;;;;;;;;;;5073551;28;20432;-76
2023/10/03 08:05:57;;;;;;;12.10;8.67;;;;;;;;;;5072983;28;20518;-76
2023/10/03 08:08:25;;;;;;;14.40;9.50;;;;;;;;;;5073351;28;20539;-76
2023/10/03 08:10:52;;;;;;;12.00;8.10;;;;;;;;;;5072994;28;20977;-76
2023/10/03 08:13:23;;;;;;;12.53;8.70;;;;;;;;;;5073014;28;20464;-75
2023/10/03 08:15:50;;;;;;;10.87;7.33;;;;;;;;;;5073348;28;20786;-76
2023/10/03 08:18:19;;;;;;;16.80;9.10;;;;;;;;;;5073436;28;20602;-76
2023/10/03 08:20:53;;;;;;;15.30;9.17;;;;;;;;;;5073160;28;20522;-76
2023/10/03 08:23:20;;;;;;;12.40;8.50;;;;;;;;;;5072738;28;20428;-74
2023/10/03 08:25:48;;;;;;;14.30;8.87;;;;;;;;;;5072715;28;20942;-74
2023/10/03 08:28:20;;;;;;;11.17;8.07;;;;;;;;;;5073140;28;20519;-74
2023/10/03 08:30:50;;;;;;;12.50;9.00;;;;;;;;;;5073253;28;20432;-74
2023/10/03 08:33:19;;;;;;;11.27;7.83;;;;;;;;;;5072732;28;20459;-74
2023/10/03 08:35:48;;;;;;;11.90;8.83;;;;;;;;;;5073085;28;20455;-74
2023/10/03 08:38:15;;;;;;;12.17;8.70;;;;;;;;;;5073051;28;20436;-74
2023/10/03 08:40:45;;;;;;;12.70;8.73;;;;;;;;;;5072955;28;20436;-74
2023/10/03 08:43:13;;;;;;;11.73;8.97;;;;;;;;;;5073126;28;20500;-74
2023/10/03 08:45:42;;;;;;;10.83;8.60;;;;;;;;;;5073288;28;20436;-74
2023/10/03 08:48:10;;;;;;;10.57;8.87;;;;;;;;;;5072966;28;20447;-74
2023/10/03 08:50:41;;;;;;;11.33;8.00;;;;;;;;;;5072904;28;20498;-74
2023/10/03 08:53:16;;;;;;;9.10;7.53;;;;;;;;;;5072945;28;20481;-74
2023/10/03 08:55:44;;;;;;;10.30;7.60;;;;;;;;;;5072473;28;20424;-74
2023/10/03 08:58:14;;;;;;;11.23;9.00;;;;;;;;;;5072529;28;20478;-74
2023/10/03 09:00:49;;;;;;;10.23;7.63;;;;;;;;;;5072829;28;20428;-74
2023/10/03 09:03:18;;;;;;;10.17;7.10;;;;;;;;;;5072728;28;20436;-74
2023/10/03 09:05:47;;;;;;;14.83;8.50;;;;;;;;;;5072465;28;20436;-74
2023/10/03 09:08:15;;;;;;;10.47;7.77;;;;;;;;;;5072583;28;20447;-74
2023/10/03 09:10:55;;;;;;;10.17;8.27;;;;;;;;;;5072422;28;20435;-74
2023/10/03 09:13:27;;;;;;;11.37;8.43;;;;;;;;;;5072577;28;20467;-74
2023/10/03 09:16:00;;;;;;;7.97;7.03;;;;;;;;;;5072742;28;20422;-75
2023/10/03 09:18:28;;;;;;;10.43;8.27;;;;;;;;;;5072382;28;20451;-74
2023/10/03 09:21:00;;;;;;;10.93;7.50;;;;;;;;;;5072399;28;20918;-74
2023/10/03 09:23:39;;;;;;;9.23;7.50;;;;;;;;;;5072956;28;20507;-74
2023/10/03 09:26:08;;;;;;;9.23;7.90;;;;;;;;;;5072646;28;20419;-74
2023/10/03 09:28:40;;;;;;;9.70;7.87;;;;;;;;;;5072587;28;20438;-74
2023/10/03 09:31:12;;;;;;;8.93;7.50;;;;;;;;;;5072454;28;20424;-74
2023/10/03 09:33:40;;;;;;;9.07;6.77;;;;;;;;;;5073599;28;20420;-75
2023/10/03 09:36:09;;;;;;;8.80;6.93;;;;;;;;;;5076029;28;20537;-74
2023/10/03 09:38:44;;;;;;;8.57;7.33;;;;;;;;;;5076115;28;20427;-74
2023/10/03 09:41:17;;;;;;;7.77;5.80;;;;;;;;;;5075856;28;20420;-74
2023/10/03 09:43:53;;;;;;;9.60;7.37;;;;;;;;;;5075793;28;20477;-74
2023/10/03 09:46:26;;;;;;;11.13;6.57;;;;;;;;;;5075602;28;20420;-74
2023/10/03 09:49:07;;;;;;;10.80;6.57;;;;;;;;;;5075740;28;20420;-74
2023/10/03 09:51:51;;;;;;;7.30;6.53;;;;;;;;;;5075874;28;20777;-74
2023/10/03 09:54:30;;;;;;;7.50;6.00;;;;;;;;;;5075840;28;20423;-74
2023/10/03 09:56:58;;;;;;;6.90;5.17;;;;;;;;;;5075736;28;20463;-74
2023/10/03 09:59:26;;;;;;;8.70;4.72;;;;;;;;;;5075722;28;20435;-74
2023/10/03 10:01:56;;;;;;;6.97;4.97;;;;;;;;;;5075330;28;20224;-75
2023/10/03 10:04:24;;;;;;;7.22;5.78;;;;;;;;;;5075750;28;20177;-75
2023/10/03 10:06:53;;;;;;;7.53;5.32;;;;;;;;;;5075660;28;20200;-75
2023/10/03 10:09:28;;;;;;;5.72;4.53;;;;;;;;;;5072740;28;20216;-75
2023/10/03 10:12:15;;;;;;;6.63;5.40;;;;;;;;;;5055852;28;20558;-74
2023/10/03 10:15:01;;;;;;;8.63;4.72;;;;;;;;;;5055232;28;20230;-75
2023/10/03 10:17:41;;;;;;;7.13;5.18;;;;;;;;;;5055299;28;20222;-75
2023/10/03 10:20:13;;;;;;;5.25;3.90;;;;;;;;;;5055081;28;20213;-75
2023/10/03 10:23:06;;;;;;;5.50;4.18;;;;;;;;;;5055025;28;20202;-75
2023/10/03 10:25:38;;;;;;;4.93;4.20;;;;;;;;;;5045181;28;20248;-75
2023/10/03 10:28:13;;;;;;;4.50;3.50;;;;;;;;;;5055485;28;20460;-75
2023/10/03 10:30:44;;;;;;;4.47;3.50;;;;;;;;;;5055311;28;20452;-74
2023/10/03 10:33:23;;;;;;;6.23;4.30;;;;;;;;;;5055160;28;20428;-74
2023/10/03 10:35:55;;;;;;;5.10;3.60;;;;;;;;;;5054759;28;20914;-74
2023/10/03 10:38:23;;;;;;;6.27;3.80;;;;;;;;;;5054977;28;20460;-74
2023/10/03 10:41:08;;;;;;;6.80;4.20;;;;;;;;;;5054552;28;20519;-74
2023/10/03 10:44:05;;;;;;;6.70;3.47;;;;;;;;;;5048172;28;20449;-74
2023/10/03 10:46:33;;;;;;;5.13;3.50;;;;;;;;;;5054909;28;20761;-74
2023/10/03 10:49:02;;;;;;;9.23;4.50;;;;;;;;;;5054796;28;20436;-75
2023/10/03 10:51:32;;;;;;;4.93;4.40;;;;;;;;;;5054905;28;20486;-75
2023/10/03 10:54:00;;;;;;;4.80;4.30;;;;;;;;;;5055051;28;20456;-75
2023/10/03 10:56:28;;;;;;;4.30;3.65;;;;;;;;;;5054976;28;20437;-75
2023/10/03 10:59:04;;;;;;;5.40;4.20;;;;;;;;;;5054658;28;20285;-75
2023/10/03 11:01:32;;;;;;;7.05;4.80;;;;;;;;;;5054515;28;20182;-75
2023/10/03 11:03:59;;;;;;;6.57;4.57;;;;;;;;;;5054303;28;20652;-75
2023/10/03 11:06:27;;;;;;;4.82;3.80;;;;;;;;;;5054326;28;20286;-75
2023/10/03 11:08:54;;;;;;;5.70;3.83;;;;;;;;;;5054542;28;20191;-75
2023/10/03 11:11:21;;;;;;;7.28;4.47;;;;;;;;;;5054202;28;20189;-75
2023/10/03 11:13:50;;;;;;;5.60;4.07;;;;;;;;;;5054424;28;20244;-75
2023/10/03 11:16:25;;;;;;;5.67;3.77;;;;;;;;;;5054179;28;20247;-75
2023/10/03 11:18:54;;;;;;;5.40;4.00;;;;;;;;;;5054088;28;20440;-75
2023/10/03 11:21:22;;;;;;;6.78;4.68;;;;;;;;;;5054271;28;20244;-75
2023/10/03 11:24:08;;;;;;;5.18;4.13;;;;;;;;;;5054235;28;20259;-75
2023/10/03 11:26:42;;;;;;;5.18;4.07;;;;;;;;;;5054274;28;20597;-75
2023/10/03 11:29:15;;;;;;;5.38;3.90;;;;;;;;;;5053914;28;20264;-75
2023/10/03 11:31:44;;;;;;;6.25;3.60;;;;;;;;;;5054279;28;20178;-75
2023/10/03 11:34:12;;;;;;;4.32;3.17;;;;;;;;;;5054150;28;20228;-75
2023/10/03 11:36:49;;;;;;;5.40;3.87;;;;;;;;;;5054007;28;20193;-75
2023/10/03 11:39:23;;;;;;;6.93;3.85;;;;;;;;;;5054056;28;20432;-75
2023/10/03 11:41:51;;;;;;;4.83;3.80;;;;;;;;;;5054048;28;20205;-75
2023/10/03 11:44:21;;;;;;;8.98;3.67;;;;;;;;;;5053702;28;20976;-75
2023/10/03 11:46:50;;;;;;;6.03;3.10;;;;;;;;;;5053504;28;20251;-75
2023/10/03 11:49:18;;;;;;;5.10;3.70;;;;;;;;;;5053650;28;20193;-75
2023/10/03 11:51:47;;;;;;;4.60;3.45;;;;;;;;;;5053792;28;20526;-75
2023/10/03 11:54:15;;;;;;;6.38;4.22;;;;;;;;;;5053416;28;20761;-75
2023/10/03 11:56:43;;;;;;;8.47;3.37;;;;;;;;;;5053110;28;20194;-75
2023/10/03 11:59:14;;;;;;;4.40;3.33;;;;;;;;;;5053390;28;20444;-75
2023/10/03 12:01:42;;;;;;;7.77;3.80;;;;;;;;;;5053961;28;20421;-75
2023/10/03 12:04:12;;;;;;;4.20;3.20;;;;;;;;;;5053513;28;20519;-75
2023/10/03 12:06:41;;;;;;;4.60;3.80;;;;;;;;;;5053612;28;20429;-75
2023/10/03 12:09:09;;;;;;;6.57;4.03;;;;;;;;;;5053490;28;20445;-75
2023/10/03 12:11:37;;;;;;;5.20;3.97;;;;;;;;;;5053125;28;20919;-75
2023/10/03 12:14:05;;;;;;;6.23;3.50;;;;;;;;;;5053051;28;21024;-75
2023/10/03 12:16:33;;;;;;;5.83;4.70;;;;;;;;;;5053313;28;20467;-75
2023/10/03 12:19:02;;;;;;;5.00;4.00;;;;;;;;;;5053043;28;20444;-75
2023/10/03 12:21:30;;;;;;;5.83;3.90;;;;;;;;;;5053314;28;20502;-75
2023/10/03 12:23:58;;;;;;;5.33;3.50;;;;;;;;;;5052878;28;20471;-75
2023/10/03 12:26:26;;;;;;;6.17;3.57;;;;;;;;;;5053423;28;20798;-75
2023/10/03 12:28:53;;;;;;;5.83;3.70;;;;;;;;;;5053261;28;20472;-75
2023/10/03 12:31:26;;;;;;;6.90;3.80;;;;;;;;;;5053206;28;20498;-75
2023/10/03 12:33:55;;;;;;;9.53;3.90;;;;;;;;;;5053174;28;20900;-75
2023/10/03 12:36:22;;;;;;;5.23;4.00;;;;;;;;;;5053133;28;20869;-75
2023/10/03 12:38:51;;;;;;;6.00;3.93;;;;;;;;;;5053202;28;20452;-75
2023/10/03 12:41:19;;;;;;;7.23;3.83;;;;;;;;;;5053034;28;20463;-75
2023/10/03 12:43:47;;;;;;;3.97;3.10;;;;;;;;;;5052815;28;20447;-75
2023/10/03 12:46:14;;;;;;;5.20;3.90;;;;;;;;;;5053148;28;20479;-75
2023/10/03 12:48:42;;;;;;;6.40;3.73;;;;;;;;;;5052674;28;20468;-74
2023/10/03 12:51:09;;;;;;;6.00;3.57;;;;;;;;;;5052804;28;20495;-75
2023/10/03 12:53:37;;;;;;;6.10;4.03;;;;;;;;;;5053218;28;20433;-75
2023/10/03 12:56:08;;;;;;;4.90;4.07;;;;;;;;;;5052616;28;20501;-75
2023/10/03 12:58:37;;;;;;;4.80;3.70;;;;;;;;;;5053190;28;20478;-74
2023/10/03 13:01:05;;;;;;;12.23;4.00;;;;;;;;;;5052690;28;20425;-74
2023/10/03 13:03:32;;;;;;;4.80;3.30;;;;;;;;;;5052625;28;20429;-75
2023/10/03 13:06:00;;;;;;;8.53;3.03;;;;;;;;;;5052519;28;20437;-75
2023/10/03 13:08:27;;;;;;;4.10;2.87;;;;;;;;;;5054981;28;20477;-74
2023/10/03 13:10:58;;;;;;;6.90;3.87;;;;;;;;;;5056720;28;20795;-74
2023/10/03 13:13:27;;;;;;;7.40;3.70;;;;;;;;;;5056528;28;20468;-74
2023/10/03 13:15:58;;;;;;;5.37;3.53;;;;;;;;;;5056685;28;20425;-74
2023/10/03 13:18:25;;;;;;;6.40;3.30;;;28.90;28.70;;;;;;5056717;28;20432;-74
2023/10/03 13:20:53;;;;;;;8.13;3.60;;;46.90;9.50;;;;;;5056278;28;20433;-74
2023/10/03 13:23:20;;;;;;;5.90;3.37;;;44.70;10.00;;;;;;5056623;28;20475;-74
2023/10/03 13:25:49;;;;;;;5.80;3.73;;;43.00;11.20;;;;;;5056490;28;20483;-74
2023/10/03 13:28:16;;;;;;;6.00;3.30;;;41.50;11.80;;;;;;5056068;28;20500;-76
2023/10/03 13:30:46;;;;;;;10.40;3.37;;;40.40;13.40;;;;;;5056136;28;20469;-76
2023/10/03 13:33:13;;;;;;;5.77;2.83;;;39.40;14.00;;;;;;5056562;28;20524;-76
2023/10/03 13:35:42;;;;;;;8.50;3.97;;;38.60;14.30;;;;;;5055974;28;20445;-76
2023/10/03 13:38:10;;;;;;;8.30;3.40;;;37.80;14.60;;;;;;5056292;28;20449;-75
2023/10/03 13:40:37;;;;;;;8.93;3.80;;;37.20;15.30;;;;;;5056188;28;20524;-76
2023/10/03 13:43:06;;;;;;;8.90;3.43;;;36.50;16.00;;;;;;5056216;28;20490;-76
2023/10/03 13:45:33;;;;;;;5.03;3.47;;;36.10;16.20;;;;;;5056413;28;20799;-75
2023/10/03 13:48:02;;;;;;;5.33;3.63;;;35.70;16.50;;;;;;5055759;28;20488;-76
2023/10/03 13:50:30;;;;;;;7.40;4.50;;;35.20;16.70;;;;;;5056042;28;21014;-76
2023/10/03 13:52:59;;;;;;;4.87;3.23;;;34.80;17.40;;;;;;5055776;28;20444;-76
2023/10/03 13:55:29;;;;;;;5.90;3.50;;;34.30;17.90;;;;;;5055565;28;20439;-76
2023/10/03 13:57:56;;;;;;;5.13;2.90;;;33.90;18.80;;;;;;5056002;28;20433;-76
2023/10/03 14:00:24;;;;;;;5.23;3.90;;;33.50;18.90;;;;;;5056155;28;20472;-75
2023/10/03 14:02:53;;;;;;;9.03;3.70;;;33.30;19.60;;;;;;5055601;28;20974;-76
2023/10/03 14:05:22;;;;;;;8.37;4.00;;;33.00;19.70;;;;;;5055574;28;20434;-75
2023/10/03 14:07:51;;;;;;;5.60;3.43;;;32.80;20.40;;;;;;5055797;28;20495;-76
2023/10/03 14:10:20;;;;;;;8.10;3.40;;;32.50;20.90;;;;;;5055685;28;20794;-76
2023/10/03 14:12:47;;;;;;;6.23;3.17;;;32.20;20.80;;;;;;5055197;28;20944;-75
2023/10/03 14:15:19;;;;;;;6.43;4.20;;;31.90;20.90;;;;;;5055639;28;20433;-75
2023/10/03 14:17:47;;;;;;;5.60;3.10;;;31.60;21.30;;;;;;5055615;28;20460;-75
2023/10/03 14:20:16;;;;;;;4.80;2.97;;;31.30;21.50;;;;;;5054919;28;20528;-76
2023/10/03 14:22:44;;;;;;;7.30;3.30;;;31.10;22.30;;;;;;5055203;28;20444;-76
2023/10/03 14:25:12;;;;;;;6.10;2.93;;;30.80;22.60;;;;;;5055028;28;20434;-75
2023/10/03 14:27:40;;;;;;;5.50;3.27;;;30.60;22.80;;;;;;5055298;28;21108;-75
2023/10/03 14:30:08;;;;;;;4.57;3.20;;;30.40;23.20;;;;;;5055383;28;20433;-75
2023/10/03 14:32:37;;;;;;;6.20;3.50;;;30.10;23.20;;;;;;5055003;28;20916;-76
2023/10/03 14:35:05;;;;;;;7.20;3.13;;;29.90;23.60;;;;;;5055241;28;20452;-76
2023/10/03 14:37:32;;;;;;;6.13;3.17;;;29.70;23.70;;;;;;5054402;28;20441;-76
2023/10/03 14:40:04;;;;;;;6.33;3.77;;;29.50;23.80;;;;;;5055299;28;20491;-75